sensor_id;sensor_type;location;lat;lon;timestamp;P1;durP1;ratioP1;P2;durP2;ratioP2
35290;SDS011;21411;50.024;19.220;2022-12-07T00:03:37;12.70;;;10.00;;
35290;SDS011;21411;50.024;19.220;2022-12-07T00:06:06;14.60;;;10.80;;
35290;SDS011;21411;50.024;19.220;2022-12-07T00:08:33;13.60;;;9.90;;
35290;SDS011;21411;50.024;19.220;2022-12-07T00:11:07;12.60;;;10.80;;
35290;SDS011;21411;50.024;19.220;2022-12-07T00:13:36;12.80;;;11.20;;
35290;SDS011;21411;50.024;19.220;2022-12-07T00:16:04;12.30;;;10.80;;
35290;SDS011;21411;50.024;19.220;2022-12-07T00:18:32;14.70;;;10.80;;
35290;SDS011;21411;50.024;19.220;2022-12-07T00:21:00;13.60;;;12.00;;
35290;SDS011;21411;50.024;19.220;2022-12-07T00:23:27;16.40;;;11.20;;
35290;SDS011;21411;50.024;19.220;2022-12-07T00:25:53;19.00;;;12.80;;
35290;SDS011;21411;50.024;19.220;2022-12-07T00:28:21;14.90;;;11.60;;
35290;SDS011;21411;50.024;19.220;2022-12-07T00:30:47;14.20;;;11.20;;
35290;SDS011;21411;50.024;19.220;2022-12-07T00:33:12;13.50;;;11.30;;
35290;SDS011;21411;50.024;19.220;2022-12-07T00:35:40;19.20;;;13.30;;
35290;SDS011;21411;50.024;19.220;2022-12-07T00:38:06;17.20;;;12.50;;
35290;SDS011;21411;50.024;19.220;2022-12-07T00:40:33;17.10;;;13.90;;
35290;SDS011;21411;50.024;19.220;2022-12-07T00:43:00;16.80;;;13.10;;
35290;SDS011;21411;50.024;19.220;2022-12-07T00:45:26;18.40;;;14.30;;
35290;SDS011;21411;50.024;19.220;2022-12-07T00:47:52;17.50;;;13.50;;
35290;SDS011;21411;50.024;19.220;2022-12-07T00:50:19;16.60;;;13.90;;
35290;SDS011;21411;50.024;19.220;2022-12-07T00:52:44;15.50;;;12.90;;
35290;SDS011;21411;50.024;19.220;2022-12-07T00:55:10;16.40;;;14.50;;
35290;SDS011;21411;50.024;19.220;2022-12-07T00:57:37;14.90;;;12.40;;
35290;SDS011;21411;50.024;19.220;2022-12-07T01:00:03;17.40;;;13.90;;
35290;SDS011;21411;50.024;19.220;2022-12-07T01:02:29;15.80;;;13.80;;
35290;SDS011;21411;50.024;19.220;2022-12-07T01:04:56;18.50;;;13.20;;
35290;SDS011;21411;50.024;19.220;2022-12-07T01:07:22;18.20;;;15.00;;
35290;SDS011;21411;50.024;19.220;2022-12-07T01:09:48;17.40;;;14.60;;
35290;SDS011;21411;50.024;19.220;2022-12-07T01:12:14;14.10;;;12.00;;
35290;SDS011;21411;50.024;19.220;2022-12-07T01:14:41;13.40;;;11.90;;
35290;SDS011;21411;50.024;19.220;2022-12-07T01:17:07;15.00;;;11.50;;
35290;SDS011;21411;50.024;19.220;2022-12-07T01:19:33;13.30;;;11.30;;
35290;SDS011;21411;50.024;19.220;2022-12-07T01:21:59;16.10;;;12.40;;
35290;SDS011;21411;50.024;19.220;2022-12-07T01:24:25;18.10;;;13.60;;
35290;SDS011;21411;50.024;19.220;2022-12-07T01:26:51;14.10;;;11.90;;
35290;SDS011;21411;50.024;19.220;2022-12-07T01:29:17;15.90;;;12.70;;
35290;SDS011;21411;50.024;19.220;2022-12-07T01:31:44;12.40;;;11.20;;
35290;SDS011;21411;50.024;19.220;2022-12-07T01:34:10;13.60;;;11.40;;
35290;SDS011;21411;50.024;19.220;2022-12-07T01:36:36;12.90;;;11.50;;
35290;SDS011;21411;50.024;19.220;2022-12-07T01:39:05;13.60;;;12.00;;
35290;SDS011;21411;50.024;19.220;2022-12-07T01:41:35;15.90;;;12.40;;
35290;SDS011;21411;50.024;19.220;2022-12-07T01:44:10;14.40;;;12.90;;
35290;SDS011;21411;50.024;19.220;2022-12-07T01:46:40;19.60;;;15.10;;
35290;SDS011;21411;50.024;19.220;2022-12-07T01:49:08;20.00;;;15.40;;
35290;SDS011;21411;50.024;19.220;2022-12-07T01:51:38;13.90;;;12.40;;
35290;SDS011;21411;50.024;19.220;2022-12-07T01:54:08;15.80;;;13.20;;
35290;SDS011;21411;50.024;19.220;2022-12-07T01:59:04;15.10;;;12.70;;
35290;SDS011;21411;50.024;19.220;2022-12-07T02:01:30;14.30;;;12.40;;
35290;SDS011;21411;50.024;19.220;2022-12-07T02:03:55;17.90;;;15.20;;
35290;SDS011;21411;50.024;19.220;2022-12-07T02:06:22;17.00;;;13.40;;
35290;SDS011;21411;50.024;19.220;2022-12-07T02:08:51;15.30;;;13.30;;
35290;SDS011;21411;50.024;19.220;2022-12-07T02:11:18;20.10;;;15.90;;
35290;SDS011;21411;50.024;19.220;2022-12-07T02:13:45;18.90;;;15.30;;
35290;SDS011;21411;50.024;19.220;2022-12-07T02:30:22;16.60;;;14.70;;
35290;SDS011;21411;50.024;19.220;2022-12-07T02:32:56;19.20;;;14.60;;
35290;SDS011;21411;50.024;19.220;2022-12-07T02:41:00;16.60;;;14.60;;
35290;SDS011;21411;50.024;19.220;2022-12-07T02:43:34;16.60;;;14.40;;
35290;SDS011;21411;50.024;19.220;2022-12-07T02:46:05;18.50;;;15.90;;
35290;SDS011;21411;50.024;19.220;2022-12-07T02:48:35;18.60;;;15.80;;
35290;SDS011;21411;50.024;19.220;2022-12-07T02:51:04;18.50;;;15.60;;
35290;SDS011;21411;50.024;19.220;2022-12-07T02:53:37;17.20;;;15.40;;
35290;SDS011;21411;50.024;19.220;2022-12-07T03:07:24;17.20;;;15.50;;
35290;SDS011;21411;50.024;19.220;2022-12-07T03:12:44;17.90;;;16.10;;
35290;SDS011;21411;50.024;19.220;2022-12-07T03:15:20;19.20;;;16.90;;
35290;SDS011;21411;50.024;19.220;2022-12-07T03:17:51;18.40;;;16.30;;
35290;SDS011;21411;50.024;19.220;2022-12-07T03:20:22;18.40;;;16.40;;
35290;SDS011;21411;50.024;19.220;2022-12-07T03:22:50;19.50;;;16.50;;
35290;SDS011;21411;50.024;19.220;2022-12-07T03:25:19;19.50;;;15.90;;
35290;SDS011;21411;50.024;19.220;2022-12-07T03:27:49;17.20;;;15.10;;
35290;SDS011;21411;50.024;19.220;2022-12-07T03:30:27;18.40;;;15.80;;
35290;SDS011;21411;50.024;19.220;2022-12-07T03:33:01;20.60;;;17.60;;
35290;SDS011;21411;50.024;19.220;2022-12-07T03:35:33;19.70;;;17.50;;
35290;SDS011;21411;50.024;19.220;2022-12-07T03:40:44;22.00;;;18.00;;
35290;SDS011;21411;50.024;19.220;2022-12-07T03:43:31;20.10;;;16.60;;
35290;SDS011;21411;50.024;19.220;2022-12-07T03:48:46;21.30;;;17.30;;
35290;SDS011;21411;50.024;19.220;2022-12-07T03:51:25;20.80;;;16.40;;
35290;SDS011;21411;50.024;19.220;2022-12-07T03:54:01;18.80;;;16.40;;
35290;SDS011;21411;50.024;19.220;2022-12-07T03:56:32;20.70;;;17.10;;
35290;SDS011;21411;50.024;19.220;2022-12-07T03:58:59;19.00;;;16.40;;
35290;SDS011;21411;50.024;19.220;2022-12-07T04:01:25;20.70;;;17.80;;
35290;SDS011;21411;50.024;19.220;2022-12-07T04:03:51;19.20;;;16.10;;
35290;SDS011;21411;50.024;19.220;2022-12-07T04:06:17;20.90;;;17.30;;
35290;SDS011;21411;50.024;19.220;2022-12-07T04:08:43;18.10;;;15.80;;
35290;SDS011;21411;50.024;19.220;2022-12-07T04:11:09;18.80;;;15.90;;
35290;SDS011;21411;50.024;19.220;2022-12-07T04:13:35;19.50;;;16.20;;
35290;SDS011;21411;50.024;19.220;2022-12-07T04:16:21;19.80;;;16.40;;
35290;SDS011;21411;50.024;19.220;2022-12-07T04:18:47;18.00;;;15.40;;
35290;SDS011;21411;50.024;19.220;2022-12-07T04:21:13;19.60;;;16.40;;
35290;SDS011;21411;50.024;19.220;2022-12-07T04:23:39;20.50;;;16.10;;
35290;SDS011;21411;50.024;19.220;2022-12-07T04:26:05;20.00;;;15.90;;
35290;SDS011;21411;50.024;19.220;2022-12-07T04:28:31;18.90;;;16.00;;
35290;SDS011;21411;50.024;19.220;2022-12-07T04:30:57;18.60;;;16.00;;
35290;SDS011;21411;50.024;19.220;2022-12-07T04:33:23;19.60;;;16.20;;
35290;SDS011;21411;50.024;19.220;2022-12-07T04:35:49;20.40;;;17.60;;
35290;SDS011;21411;50.024;19.220;2022-12-07T04:38:15;22.70;;;20.10;;
35290;SDS011;21411;50.024;19.220;2022-12-07T04:40:41;27.60;;;21.40;;
35290;SDS011;21411;50.024;19.220;2022-12-07T04:43:06;24.40;;;20.00;;
35290;SDS011;21411;50.024;19.220;2022-12-07T04:45:32;27.60;;;21.90;;
35290;SDS011;21411;50.024;19.220;2022-12-07T04:47:58;22.40;;;17.00;;
35290;SDS011;21411;50.024;19.220;2022-12-07T04:50:24;16.90;;;14.00;;
35290;SDS011;21411;50.024;19.220;2022-12-07T04:52:50;16.60;;;14.80;;
35290;SDS011;21411;50.024;19.220;2022-12-07T04:55:16;17.20;;;15.40;;
35290;SDS011;21411;50.024;19.220;2022-12-07T04:57:42;16.60;;;13.20;;
35290;SDS011;21411;50.024;19.220;2022-12-07T05:00:08;15.50;;;12.30;;
35290;SDS011;21411;50.024;19.220;2022-12-07T05:02:36;14.60;;;12.30;;
35290;SDS011;21411;50.024;19.220;2022-12-07T05:05:02;15.70;;;13.00;;
35290;SDS011;21411;50.024;19.220;2022-12-07T05:07:29;14.40;;;12.30;;
35290;SDS011;21411;50.024;19.220;2022-12-07T05:09:55;17.10;;;12.80;;
35290;SDS011;21411;50.024;19.220;2022-12-07T05:12:21;14.40;;;12.60;;
35290;SDS011;21411;50.024;19.220;2022-12-07T05:14:47;13.60;;;10.60;;
35290;SDS011;21411;50.024;19.220;2022-12-07T05:17:13;13.80;;;11.80;;
35290;SDS011;21411;50.024;19.220;2022-12-07T05:19:39;13.00;;;11.00;;
35290;SDS011;21411;50.024;19.220;2022-12-07T05:22:05;13.20;;;11.80;;
35290;SDS011;21411;50.024;19.220;2022-12-07T05:24:31;14.70;;;11.50;;
35290;SDS011;21411;50.024;19.220;2022-12-07T05:26:57;14.30;;;12.40;;
35290;SDS011;21411;50.024;19.220;2022-12-07T05:29:23;13.50;;;12.10;;
35290;SDS011;21411;50.024;19.220;2022-12-07T05:31:49;14.30;;;12.70;;
35290;SDS011;21411;50.024;19.220;2022-12-07T05:34:15;15.60;;;12.40;;
35290;SDS011;21411;50.024;19.220;2022-12-07T05:36:41;14.30;;;12.00;;
35290;SDS011;21411;50.024;19.220;2022-12-07T05:39:09;13.80;;;11.60;;
35290;SDS011;21411;50.024;19.220;2022-12-07T05:41:35;15.10;;;11.50;;
35290;SDS011;21411;50.024;19.220;2022-12-07T05:44:20;14.20;;;11.00;;
35290;SDS011;21411;50.024;19.220;2022-12-07T05:46:46;15.60;;;13.10;;
35290;SDS011;21411;50.024;19.220;2022-12-07T05:49:12;16.20;;;13.50;;
35290;SDS011;21411;50.024;19.220;2022-12-07T05:51:38;15.00;;;13.00;;
35290;SDS011;21411;50.024;19.220;2022-12-07T05:54:04;14.50;;;13.00;;
35290;SDS011;21411;50.024;19.220;2022-12-07T05:56:30;13.80;;;12.40;;
35290;SDS011;21411;50.024;19.220;2022-12-07T05:58:55;15.60;;;12.60;;
35290;SDS011;21411;50.024;19.220;2022-12-07T06:01:40;16.30;;;13.60;;
35290;SDS011;21411;50.024;19.220;2022-12-07T06:04:06;16.20;;;13.40;;
35290;SDS011;21411;50.024;19.220;2022-12-07T06:06:32;16.50;;;13.50;;
35290;SDS011;21411;50.024;19.220;2022-12-07T06:08:59;15.60;;;13.90;;
35290;SDS011;21411;50.024;19.220;2022-12-07T06:11:24;16.20;;;13.60;;
35290;SDS011;21411;50.024;19.220;2022-12-07T06:14:09;15.80;;;12.40;;
35290;SDS011;21411;50.024;19.220;2022-12-07T06:16:35;16.00;;;13.30;;
35290;SDS011;21411;50.024;19.220;2022-12-07T06:19:01;16.10;;;13.30;;
35290;SDS011;21411;50.024;19.220;2022-12-07T06:21:27;19.10;;;15.30;;
35290;SDS011;21411;50.024;19.220;2022-12-07T06:23:54;19.00;;;15.00;;
35290;SDS011;21411;50.024;19.220;2022-12-07T06:26:20;20.70;;;17.20;;
35290;SDS011;21411;50.024;19.220;2022-12-07T06:28:46;21.40;;;16.60;;
35290;SDS011;21411;50.024;19.220;2022-12-07T06:31:12;23.90;;;18.00;;
35290;SDS011;21411;50.024;19.220;2022-12-07T06:33:38;28.00;;;17.10;;
35290;SDS011;21411;50.024;19.220;2022-12-07T06:36:04;23.60;;;16.40;;
35290;SDS011;21411;50.024;19.220;2022-12-07T06:38:30;20.10;;;15.80;;
35290;SDS011;21411;50.024;19.220;2022-12-07T06:40:56;19.00;;;14.40;;
35290;SDS011;21411;50.024;19.220;2022-12-07T06:43:22;14.90;;;12.90;;
35290;SDS011;21411;50.024;19.220;2022-12-07T06:45:48;15.80;;;12.50;;
35290;SDS011;21411;50.024;19.220;2022-12-07T06:48:14;14.50;;;12.00;;
35290;SDS011;21411;50.024;19.220;2022-12-07T06:50:40;16.20;;;13.00;;
35290;SDS011;21411;50.024;19.220;2022-12-07T06:53:06;15.50;;;12.60;;
35290;SDS011;21411;50.024;19.220;2022-12-07T06:55:33;16.00;;;13.60;;
35290;SDS011;21411;50.024;19.220;2022-12-07T06:57:59;16.50;;;14.40;;
35290;SDS011;21411;50.024;19.220;2022-12-07T07:00:25;17.80;;;14.80;;
35290;SDS011;21411;50.024;19.220;2022-12-07T07:02:51;17.60;;;14.40;;
35290;SDS011;21411;50.024;19.220;2022-12-07T07:05:16;16.30;;;14.40;;
35290;SDS011;21411;50.024;19.220;2022-12-07T07:07:43;19.00;;;15.20;;
35290;SDS011;21411;50.024;19.220;2022-12-07T07:10:09;18.60;;;15.80;;
35290;SDS011;21411;50.024;19.220;2022-12-07T07:12:36;21.20;;;17.00;;
35290;SDS011;21411;50.024;19.220;2022-12-07T07:15:04;22.00;;;17.80;;
35290;SDS011;21411;50.024;19.220;2022-12-07T07:17:30;20.80;;;17.20;;
35290;SDS011;21411;50.024;19.220;2022-12-07T07:19:56;22.40;;;18.40;;
35290;SDS011;21411;50.024;19.220;2022-12-07T07:22:22;22.80;;;17.30;;
35290;SDS011;21411;50.024;19.220;2022-12-07T07:24:48;26.30;;;19.70;;
35290;SDS011;21411;50.024;19.220;2022-12-07T07:27:14;38.80;;;26.20;;
35290;SDS011;21411;50.024;19.220;2022-12-07T07:29:40;33.00;;;22.80;;
35290;SDS011;21411;50.024;19.220;2022-12-07T07:32:06;73.70;;;38.30;;
35290;SDS011;21411;50.024;19.220;2022-12-07T07:34:33;30.60;;;22.50;;
35290;SDS011;21411;50.024;19.220;2022-12-07T07:36:59;28.80;;;24.60;;
35290;SDS011;21411;50.024;19.220;2022-12-07T07:39:25;23.10;;;20.20;;
35290;SDS011;21411;50.024;19.220;2022-12-07T07:41:51;22.50;;;19.20;;
35290;SDS011;21411;50.024;19.220;2022-12-07T07:44:17;21.80;;;17.60;;
35290;SDS011;21411;50.024;19.220;2022-12-07T07:46:43;19.60;;;16.80;;
35290;SDS011;21411;50.024;19.220;2022-12-07T07:49:09;23.80;;;18.20;;
35290;SDS011;21411;50.024;19.220;2022-12-07T07:51:36;26.70;;;19.80;;
35290;SDS011;21411;50.024;19.220;2022-12-07T07:54:02;23.40;;;17.90;;
35290;SDS011;21411;50.024;19.220;2022-12-07T07:56:28;23.30;;;16.90;;
35290;SDS011;21411;50.024;19.220;2022-12-07T07:58:55;18.80;;;15.10;;
35290;SDS011;21411;50.024;19.220;2022-12-07T08:01:21;20.20;;;16.20;;
35290;SDS011;21411;50.024;19.220;2022-12-07T08:03:47;17.20;;;13.30;;
35290;SDS011;21411;50.024;19.220;2022-12-07T08:06:14;18.10;;;14.10;;
35290;SDS011;21411;50.024;19.220;2022-12-07T08:08:40;16.20;;;13.50;;
35290;SDS011;21411;50.024;19.220;2022-12-07T08:11:06;20.10;;;13.80;;
35290;SDS011;21411;50.024;19.220;2022-12-07T08:13:33;20.60;;;14.70;;
35290;SDS011;21411;50.024;19.220;2022-12-07T08:16:03;19.70;;;14.40;;
35290;SDS011;21411;50.024;19.220;2022-12-07T08:18:30;17.80;;;14.50;;
35290;SDS011;21411;50.024;19.220;2022-12-07T08:20:59;17.40;;;14.00;;
35290;SDS011;21411;50.024;19.220;2022-12-07T08:23:26;19.50;;;14.20;;
35290;SDS011;21411;50.024;19.220;2022-12-07T08:25:52;16.90;;;13.60;;
35290;SDS011;21411;50.024;19.220;2022-12-07T08:28:19;19.50;;;15.10;;
35290;SDS011;21411;50.024;19.220;2022-12-07T08:30:44;17.20;;;13.30;;
35290;SDS011;21411;50.024;19.220;2022-12-07T08:33:10;18.80;;;15.20;;
35290;SDS011;21411;50.024;19.220;2022-12-07T08:35:37;21.00;;;15.70;;
35290;SDS011;21411;50.024;19.220;2022-12-07T08:38:03;21.30;;;15.50;;
35290;SDS011;21411;50.024;19.220;2022-12-07T08:40:29;23.10;;;15.90;;
35290;SDS011;21411;50.024;19.220;2022-12-07T08:42:56;18.60;;;15.90;;
35290;SDS011;21411;50.024;19.220;2022-12-07T08:45:22;19.90;;;16.20;;
35290;SDS011;21411;50.024;19.220;2022-12-07T08:47:52;20.40;;;16.50;;
35290;SDS011;21411;50.024;19.220;2022-12-07T08:50:28;18.80;;;15.30;;
35290;SDS011;21411;50.024;19.220;2022-12-07T08:52:55;18.30;;;14.70;;
35290;SDS011;21411;50.024;19.220;2022-12-07T08:55:24;20.30;;;16.40;;
35290;SDS011;21411;50.024;19.220;2022-12-07T08:57:51;21.00;;;17.20;;
35290;SDS011;21411;50.024;19.220;2022-12-07T09:00:17;22.00;;;17.20;;
35290;SDS011;21411;50.024;19.220;2022-12-07T09:02:45;20.60;;;18.20;;
35290;SDS011;21411;50.024;19.220;2022-12-07T09:05:12;21.50;;;17.30;;
35290;SDS011;21411;50.024;19.220;2022-12-07T09:07:41;19.10;;;15.90;;
35290;SDS011;21411;50.024;19.220;2022-12-07T09:10:13;20.60;;;16.40;;
35290;SDS011;21411;50.024;19.220;2022-12-07T09:12:39;17.30;;;14.50;;
35290;SDS011;21411;50.024;19.220;2022-12-07T09:15:05;15.90;;;13.30;;
35290;SDS011;21411;50.024;19.220;2022-12-07T09:17:37;14.10;;;10.60;;
35290;SDS011;21411;50.024;19.220;2022-12-07T09:20:04;13.10;;;11.70;;
35290;SDS011;21411;50.024;19.220;2022-12-07T09:22:33;12.00;;;10.70;;
35290;SDS011;21411;50.024;19.220;2022-12-07T09:24:59;12.30;;;9.70;;
35290;SDS011;21411;50.024;19.220;2022-12-07T09:27:26;10.80;;;9.70;;
35290;SDS011;21411;50.024;19.220;2022-12-07T09:29:52;10.90;;;9.00;;
35290;SDS011;21411;50.024;19.220;2022-12-07T09:32:19;12.00;;;8.90;;
35290;SDS011;21411;50.024;19.220;2022-12-07T09:34:45;9.20;;;8.20;;
35290;SDS011;21411;50.024;19.220;2022-12-07T09:37:11;11.30;;;8.70;;
35290;SDS011;21411;50.024;19.220;2022-12-07T09:39:38;12.30;;;9.00;;
35290;SDS011;21411;50.024;19.220;2022-12-07T09:42:04;12.30;;;9.50;;
35290;SDS011;21411;50.024;19.220;2022-12-07T09:44:31;10.80;;;9.70;;
35290;SDS011;21411;50.024;19.220;2022-12-07T09:46:58;11.80;;;9.60;;
35290;SDS011;21411;50.024;19.220;2022-12-07T09:49:25;11.70;;;9.50;;
35290;SDS011;21411;50.024;19.220;2022-12-07T09:52:02;10.10;;;8.70;;
35290;SDS011;21411;50.024;19.220;2022-12-07T09:54:43;9.00;;;8.10;;
35290;SDS011;21411;50.024;19.220;2022-12-07T09:57:13;9.00;;;8.00;;
35290;SDS011;21411;50.024;19.220;2022-12-07T09:59:39;10.40;;;9.30;;
35290;SDS011;21411;50.024;19.220;2022-12-07T10:05:05;11.00;;;10.00;;
35290;SDS011;21411;50.024;19.220;2022-12-07T10:07:33;10.40;;;9.20;;
35290;SDS011;21411;50.024;19.220;2022-12-07T10:10:01;8.10;;;7.10;;
35290;SDS011;21411;50.024;19.220;2022-12-07T10:12:28;9.30;;;8.30;;
35290;SDS011;21411;50.024;19.220;2022-12-07T10:15:01;10.40;;;7.50;;
35290;SDS011;21411;50.024;19.220;2022-12-07T10:17:54;11.00;;;9.80;;
35290;SDS011;21411;50.024;19.220;2022-12-07T10:20:22;11.90;;;10.30;;
35290;SDS011;21411;50.024;19.220;2022-12-07T10:22:57;11.60;;;9.10;;
35290;SDS011;21411;50.024;19.220;2022-12-07T10:25:27;12.00;;;10.30;;
35290;SDS011;21411;50.024;19.220;2022-12-07T10:28:03;13.50;;;12.10;;
35290;SDS011;21411;50.024;19.220;2022-12-07T10:38:45;12.30;;;11.00;;
35290;SDS011;21411;50.024;19.220;2022-12-07T10:41:24;13.20;;;11.90;;
35290;SDS011;21411;50.024;19.220;2022-12-07T10:43:51;11.70;;;9.20;;
35290;SDS011;21411;50.024;19.220;2022-12-07T10:49:13;9.30;;;7.30;;
35290;SDS011;21411;50.024;19.220;2022-12-07T10:51:57;9.00;;;7.30;;
35290;SDS011;21411;50.024;19.220;2022-12-07T11:00:05;8.80;;;7.00;;
35290;SDS011;21411;50.024;19.220;2022-12-07T11:05:28;8.10;;;6.90;;
35290;SDS011;21411;50.024;19.220;2022-12-07T11:08:09;6.60;;;5.80;;
35290;SDS011;21411;50.024;19.220;2022-12-07T11:11:02;6.90;;;5.90;;
35290;SDS011;21411;50.024;19.220;2022-12-07T11:13:52;6.50;;;5.50;;
35290;SDS011;21411;50.024;19.220;2022-12-07T11:21:58;5.30;;;4.70;;
35290;SDS011;21411;50.024;19.220;2022-12-07T11:24:35;5.00;;;4.40;;
35290;SDS011;21411;50.024;19.220;2022-12-07T11:27:33;5.10;;;4.60;;
35290;SDS011;21411;50.024;19.220;2022-12-07T11:30:27;5.90;;;5.00;;
35290;SDS011;21411;50.024;19.220;2022-12-07T11:33:17;6.00;;;4.40;;
35290;SDS011;21411;50.024;19.220;2022-12-07T11:35:56;6.60;;;5.10;;
35290;SDS011;21411;50.024;19.220;2022-12-07T11:38:37;5.70;;;4.90;;
35290;SDS011;21411;50.024;19.220;2022-12-07T11:41:09;6.20;;;5.00;;
35290;SDS011;21411;50.024;19.220;2022-12-07T11:43:50;6.10;;;4.80;;
35290;SDS011;21411;50.024;19.220;2022-12-07T11:46:22;5.50;;;5.00;;
35290;SDS011;21411;50.024;19.220;2022-12-07T11:51:41;5.80;;;5.20;;
35290;SDS011;21411;50.024;19.220;2022-12-07T11:54:12;5.60;;;4.50;;
35290;SDS011;21411;50.024;19.220;2022-12-07T11:56:43;6.30;;;5.00;;
35290;SDS011;21411;50.024;19.220;2022-12-07T11:59:17;5.70;;;5.10;;
35290;SDS011;21411;50.024;19.220;2022-12-07T12:07:25;5.90;;;4.00;;
35290;SDS011;21411;50.024;19.220;2022-12-07T12:09:57;6.20;;;5.50;;
35290;SDS011;21411;50.024;19.220;2022-12-07T12:12:48;4.60;;;4.20;;
35290;SDS011;21411;50.024;19.220;2022-12-07T12:15:42;4.70;;;4.30;;
35290;SDS011;21411;50.024;19.220;2022-12-07T12:18:38;4.10;;;3.70;;
35290;SDS011;21411;50.024;19.220;2022-12-07T12:21:25;4.90;;;4.40;;
35290;SDS011;21411;50.024;19.220;2022-12-07T12:26:35;5.10;;;4.60;;
35290;SDS011;21411;50.024;19.220;2022-12-07T12:32:13;3.30;;;3.00;;
35290;SDS011;21411;50.024;19.220;2022-12-07T12:37:46;4.00;;;3.60;;
35290;SDS011;21411;50.024;19.220;2022-12-07T12:42:46;3.90;;;3.50;;
35290;SDS011;21411;50.024;19.220;2022-12-07T12:45:23;5.50;;;4.20;;
35290;SDS011;21411;50.024;19.220;2022-12-07T12:52:55;5.40;;;4.70;;
35290;SDS011;21411;50.024;19.220;2022-12-07T13:00:44;6.80;;;5.40;;
35290;SDS011;21411;50.024;19.220;2022-12-07T13:03:29;4.90;;;4.50;;
35290;SDS011;21411;50.024;19.220;2022-12-07T13:08:59;7.60;;;5.30;;
35290;SDS011;21411;50.024;19.220;2022-12-07T13:11:29;6.10;;;5.40;;
35290;SDS011;21411;50.024;19.220;2022-12-07T13:14:35;7.60;;;6.30;;
35290;SDS011;21411;50.024;19.220;2022-12-07T13:17:08;6.50;;;5.90;;
35290;SDS011;21411;50.024;19.220;2022-12-07T13:20:00;8.30;;;7.50;;
35290;SDS011;21411;50.024;19.220;2022-12-07T13:25:07;6.50;;;5.60;;
35290;SDS011;21411;50.024;19.220;2022-12-07T13:27:40;7.90;;;6.50;;
35290;SDS011;21411;50.024;19.220;2022-12-07T13:30:27;8.30;;;6.60;;
35290;SDS011;21411;50.024;19.220;2022-12-07T13:32:56;9.20;;;7.80;;
35290;SDS011;21411;50.024;19.220;2022-12-07T13:35:34;7.70;;;6.80;;
35290;SDS011;21411;50.024;19.220;2022-12-07T13:38:16;9.20;;;8.10;;
35290;SDS011;21411;50.024;19.220;2022-12-07T13:41:00;7.70;;;6.60;;
35290;SDS011;21411;50.024;19.220;2022-12-07T13:46:17;8.30;;;6.20;;
35290;SDS011;21411;50.024;19.220;2022-12-07T13:48:50;6.10;;;5.30;;
35290;SDS011;21411;50.024;19.220;2022-12-07T13:51:24;6.10;;;5.60;;
35290;SDS011;21411;50.024;19.220;2022-12-07T13:53:53;7.40;;;6.00;;
35290;SDS011;21411;50.024;19.220;2022-12-07T13:56:22;6.70;;;5.70;;
35290;SDS011;21411;50.024;19.220;2022-12-07T13:58:53;9.40;;;6.70;;
35290;SDS011;21411;50.024;19.220;2022-12-07T14:01:22;12.10;;;7.30;;
35290;SDS011;21411;50.024;19.220;2022-12-07T14:03:50;8.30;;;7.40;;
35290;SDS011;21411;50.024;19.220;2022-12-07T14:09:14;8.30;;;7.20;;
35290;SDS011;21411;50.024;19.220;2022-12-07T14:11:44;8.00;;;7.20;;
35290;SDS011;21411;50.024;19.220;2022-12-07T14:14:14;10.50;;;7.70;;
35290;SDS011;21411;50.024;19.220;2022-12-07T14:16:54;7.70;;;6.90;;
35290;SDS011;21411;50.024;19.220;2022-12-07T14:22:18;9.30;;;7.90;;
35290;SDS011;21411;50.024;19.220;2022-12-07T14:24:49;11.50;;;7.60;;
35290;SDS011;21411;50.024;19.220;2022-12-07T14:27:22;11.70;;;9.70;;
35290;SDS011;21411;50.024;19.220;2022-12-07T14:29:51;11.80;;;10.10;;
35290;SDS011;21411;50.024;19.220;2022-12-07T14:32:22;11.20;;;8.40;;
35290;SDS011;21411;50.024;19.220;2022-12-07T14:34:58;9.50;;;8.00;;
35290;SDS011;21411;50.024;19.220;2022-12-07T14:37:36;10.20;;;8.60;;
35290;SDS011;21411;50.024;19.220;2022-12-07T14:40:11;9.60;;;8.40;;
35290;SDS011;21411;50.024;19.220;2022-12-07T14:42:39;11.50;;;9.30;;
35290;SDS011;21411;50.024;19.220;2022-12-07T14:45:05;13.10;;;10.20;;
35290;SDS011;21411;50.024;19.220;2022-12-07T14:47:35;11.10;;;9.20;;
35290;SDS011;21411;50.024;19.220;2022-12-07T14:50:01;13.90;;;11.10;;
35290;SDS011;21411;50.024;19.220;2022-12-07T14:52:55;11.70;;;9.80;;
35290;SDS011;21411;50.024;19.220;2022-12-07T14:55:29;12.10;;;10.40;;
35290;SDS011;21411;50.024;19.220;2022-12-07T14:57:58;14.10;;;11.20;;
35290;SDS011;21411;50.024;19.220;2022-12-07T15:00:25;15.60;;;11.70;;
35290;SDS011;21411;50.024;19.220;2022-12-07T15:02:53;15.80;;;12.10;;
35290;SDS011;21411;50.024;19.220;2022-12-07T15:05:21;16.50;;;11.20;;
35290;SDS011;21411;50.024;19.220;2022-12-07T15:07:50;15.80;;;12.00;;
35290;SDS011;21411;50.024;19.220;2022-12-07T15:10:18;14.50;;;10.20;;
35290;SDS011;21411;50.024;19.220;2022-12-07T15:12:48;13.40;;;10.30;;
35290;SDS011;21411;50.024;19.220;2022-12-07T15:15:14;13.90;;;9.80;;
35290;SDS011;21411;50.024;19.220;2022-12-07T15:17:41;12.20;;;9.90;;
35290;SDS011;21411;50.024;19.220;2022-12-07T15:20:11;13.80;;;10.60;;
35290;SDS011;21411;50.024;19.220;2022-12-07T15:22:38;10.50;;;9.40;;
35290;SDS011;21411;50.024;19.220;2022-12-07T15:25:05;10.70;;;9.50;;
35290;SDS011;21411;50.024;19.220;2022-12-07T15:27:37;10.40;;;9.00;;
35290;SDS011;21411;50.024;19.220;2022-12-07T15:30:03;10.30;;;8.80;;
35290;SDS011;21411;50.024;19.220;2022-12-07T15:32:33;11.50;;;9.40;;
35290;SDS011;21411;50.024;19.220;2022-12-07T15:35:00;9.70;;;8.50;;
35290;SDS011;21411;50.024;19.220;2022-12-07T15:37:26;12.00;;;9.90;;
35290;SDS011;21411;50.024;19.220;2022-12-07T15:39:52;13.30;;;9.80;;
35290;SDS011;21411;50.024;19.220;2022-12-07T15:42:18;9.70;;;8.40;;
35290;SDS011;21411;50.024;19.220;2022-12-07T15:44:44;11.30;;;9.40;;
35290;SDS011;21411;50.024;19.220;2022-12-07T15:47:30;10.70;;;9.30;;
35290;SDS011;21411;50.024;19.220;2022-12-07T15:50:02;13.00;;;10.50;;
35290;SDS011;21411;50.024;19.220;2022-12-07T15:52:29;12.80;;;10.30;;
35290;SDS011;21411;50.024;19.220;2022-12-07T15:54:56;13.10;;;9.70;;
35290;SDS011;21411;50.024;19.220;2022-12-07T15:57:22;13.00;;;10.10;;
35290;SDS011;21411;50.024;19.220;2022-12-07T15:59:48;13.60;;;11.00;;
35290;SDS011;21411;50.024;19.220;2022-12-07T16:02:14;13.00;;;10.20;;
35290;SDS011;21411;50.024;19.220;2022-12-07T16:04:40;13.10;;;9.90;;
35290;SDS011;21411;50.024;19.220;2022-12-07T16:07:06;14.00;;;10.20;;
35290;SDS011;21411;50.024;19.220;2022-12-07T16:09:32;11.70;;;9.30;;
35290;SDS011;21411;50.024;19.220;2022-12-07T16:11:58;12.30;;;8.70;;
35290;SDS011;21411;50.024;19.220;2022-12-07T16:14:24;11.50;;;9.00;;
35290;SDS011;21411;50.024;19.220;2022-12-07T16:16:50;12.20;;;8.40;;
35290;SDS011;21411;50.024;19.220;2022-12-07T16:19:17;11.20;;;8.70;;
35290;SDS011;21411;50.024;19.220;2022-12-07T16:21:43;13.90;;;9.00;;
35290;SDS011;21411;50.024;19.220;2022-12-07T16:24:09;12.30;;;9.10;;
35290;SDS011;21411;50.024;19.220;2022-12-07T16:26:35;12.10;;;9.70;;